WETTERDATEN

HEUTE
Time Temp. Taup. r.Fe. Windrich Windstärke Windböe Druck 1h Prec. 24h Prec.
00:04 4.5 2.2 85 40 0.6 1.1 1005.6 0.0000 0.0000
00:15 4.1 1.8 85 39 0.8 1.4 1005.5 0.0000 0.0000
00:24 4 1.7 85 50 0.6 1.4 1005.5 0.0000 0.0000
00:34 3.8 1.5 85 37 0.6 0.8 1005.6 0.0000 0.0000
00:44 3.6 1.3 85 45 0.6 1.1 1005.6 0.0000 0.0000
00:55 3.4 1.1 85 40 0.3 0.6 1005.6 0.0000 0.0000
01:05 3.2 1.1 86 11 0.3 0.8 1005.7 0.0000 0.0000
01:14 3.1 1 86 350 0.3 0.8 1005.8 0.0000 0.0000
01:25 2.9 0.8 86 348 0.6 1.1 1006 0.0000 0.0000
01:35 2.8 0.7 86 349 0.6 1.1 1006 0.0000 0.0000
01:45 2.8 0.7 86 334 0.6 0.8 1006 0.0000 0.0000
01:55 2.7 0.6 86 337 0.6 1.4 1006 0.0000 0.0000
02:06 2.6 0.5 86 45 0.3 0.6 1006 0.0000 0.0000
02:15 2.5 0.4 86 331 0.6 1.1 1006 0.0000 0.0000
02:25 2.4 0.3 86 347 0.3 0.8 1006 0.0000 0.0000
02:36 2.3 0.4 87 338 0.3 0.6 1006 0.0000 0.0000
02:46 2.1 0.2 87 11 0.3 0.6 1006.2 0.0000 0.0000
02:56 2 0.1 87 336 0.3 0.6 1006.2 0.0000 0.0000
03:05 1.7 -0.2 87 340 0.3 0.6 1006.2 0.0000 0.0000
03:16 1.5 -0.4 87 14 0.3 0.8 1006.2 0.0000 0.0000
03:26 1.3 -0.5 87 12 0.3 0.6 1006.2 0.0000 0.0000
03:36 1.2 -0.6 87 11 0.3 0.6 1006.4 0.0000 0.0000
03:46 1.1 -0.7 87 18 0.3 0.6 1006.5 0.0000 0.0000
03:56 1.1 -0.7 87 8 0.3 1.1 1006.5 0.0000 0.0000
04:06 1.1 -0.7 87 0 0.3 0.6 1006.5 0.0000 0.0000
04:16 1 -0.8 87 0 0.6 1006.6 0.0000 0.0000
04:27 0.9 -0.9 87 315 0.3 0.8 1006.6 0.0000 0.0000
04:37 0.8 -1 87 315 0.3 0.6 1006.7 0.0000 0.0000
04:46 0.8 -0.8 88 36 0.3 0.6 1006.8 0.0000 0.0000
04:57 0.8 -0.8 88 30 0.3 0.6 1006.8 0.0000 0.0000
05:07 0.8 -0.8 88 270 0.3 0.6 1006.9 0.0000 0.0000
05:17 0.8 -0.8 88 326 0.3 1.1 1007.1 0.0000 0.0000
05:27 0.9 -0.8 88 340 0.6 0.8 1007.1 0.0000 0.0000
05:37 0.9 -0.8 88 344 0.3 0.8 1007.2 0.0000 0.0000
05:47 0.8 -0.8 88 270 0.3 0.6 1007.4 0.0000 0.0000
05:57 0.8 -0.8 88 320 0.6 1.1 1007.5 0.0000 0.0000
06:07 1 -0.7 88 326 0.6 1.1 1007.6 0.0000 0.0000
06:18 1 -0.7 88 341 0.3 0.8 1007.5 0.0000 0.0000
06:28 1 -0.7 88 45 0.3 0.6 1007.5 0.0000 0.0000
06:37 1 -0.7 88 52 0.3 0.6 1007.6 0.0000 0.0000
06:48 1 -0.7 88 45 0.3 0.6 1007.7 0.0000 0.0000
06:58 1 -0.5 89 29 0.3 0.6 1007.9 0.0000 0.0000
07:08 1.2 -0.4 89 303 0.3 0.6 1008 0.0000 0.0000
07:18 1.4 -0.2 89 312 0.6 1.7 1008.3 0.0000 0.0000
07:28 1.7 0.1 89 270 0.6 0.8 1008.4 0.0000 0.0000
07:38 1.9 0.3 89 321 0.6 1.4 1008.5 0.0000 0.0000
07:48 2.2 0.6 89 317 0.6 1.7 1008.7 0.0000 0.0000
07:56 2.4 0.8 89 348 0.3 0.8 1008.7 0.1010 0.1000
08:08 2.7 1.1 89 349 0.6 1.4 1008.7 0.1010 0.1000
08:18 2.9 1.3 89 319 0.3 0.8 1008.9 0.1010 0.1000
08:29 3.2 1.6 89 315 0.3 0.8 1009.1 0.1010 0.1000
08:39 3.5 1.9 89 317 0.6 1.4 1009.1 0.1010 0.1000
08:49 3.7 2.1 89 319 0.6 1.1 1009.2 0.1010 0.1000
08:59 3.9 2.3 89 349 0.6 0.8 1009.4 0.0000 0.1000
09:09 4.1 2.5 89 317 0.6 1.4 1009.5 0.0000 0.1000
09:19 4.4 2.9 90 340 0.8 1.7 1009.6 0.0000 0.1000
09:29 4.6 3.1 90 348 0.3 1.1 1009.6 0.0000 0.1000
09:40 4.9 3.4 90 15 0.3 0.8 1009.7 0.0000 0.1000
09:49 4.9 3.4 90 23 1.1 1.9 1009.8 0.0000 0.1000
09:59 5.1 3.6 90 55 0.6 1.1 1009.8 0.0000 0.1000
10:10 5.2 3.7 90 29 0.6 1.1 1009.8 0.0000 0.1000
10:20 5.6 4.1 90 315 0.3 0.6 1009.9 0.0000 0.1000
10:30 5.9 4.4 90 323 0.3 0.8 1010 0.0000 0.1000
10:39 6.1 4.6 90 10 0.3 0.8 1010 0.0000 0.1000
10:50 6.2 4.7 90 45 0.3 0.6 1010.2 0.0000 0.1000
11:00 6.5 5 90 354 0.3 0.6 1010 0.0000 0.1000
11:10 6.8 5.3 90 270 0.3 1.1 1010.2 0.0000 0.1000
11:20 7 5.5 90 348 0.6 1.4 1010.1 0.0000 0.1000
11:30 7.1 5.6 90 337 0.3 0.8 1010.2 0.0000 0.1000
11:40 7.3 5.8 90 30 0.8 1.9 1010.2 0.0000 0.1000
11:50 7.1 5.6 90 45 0.6 1.7 1010.4 0.0000 0.1000
12:01 7.2 5.7 90 29 0.6 1.4 1010.5 0.0000 0.1000
12:11 7.3 5.8 90 57 0.6 1.4 1010.4 0.0000 0.1000
12:21 7.4 5.9 90 45 0.6 1.1 1010.5 0.0000 0.1000
12:30 7.4 5.9 90 39 0.6 1.4 1010.6 0.0000 0.1000
12:41 7.4 5.9 90 34 0.6 1.1 1010.7 0.0000 0.1000
12:51 7.5 6 90 47 0.8 1.7 1010.7 0.0000 0.1000
13:01 7.5 6 90 42 0.6 1.7 1010.7 0.0000 0.1000
13:12 7.5 6 90 50 0.6 1.4 1010.7 0.0000 0.1000
13:21 7.6 6.1 90 9 0.6 1.7 1010.8 0.0000 0.1000
13:31 7.7 6.2 90 22 0.6 1.9 1010.8 0.0000 0.1000
13:41 7.7 6.2 90 36 0.8 1.9 1010.8 0.0000 0.1000
13:52 7.8 6.3 90 33 1.1 1.9 1010.8 0.0000 0.1000
14:02 7.9 6.4 90 43 0.8 2.2 1010.8 0.0000 0.1000
14:11 7.9 6.4 90 347 0.8 2.2 1010.9 0.0000 0.1000
14:22 8.1 6.6 90 322 0.6 1.7 1010.8 0.0000 0.1000
14:32 8.2 6.7 90 337 0.6 1.4 1010.9 0.0000 0.1000
14:42 8.3 6.6 89 337 0.8 1.4 1010.9 0.0000 0.1000
14:52 8.3 6.6 89 14 0.8 1.9 1011 0.0000 0.1000
15:02 8.3 6.6 89 28 0.6 1.7 1011 0.0000 0.1000
15:12 8.2 6.5 89 50 1.4 2.5 1010.9 0.0000 0.1000
15:22 8.2 6.5 89 46 0.8 1.7 1010.9 0.0000 0.1000
15:33 8.2 6.5 89 18 0.8 2.5 1010.9 0.0000 0.1000
15:43 8.2 6.5 89 19 0.6 1.4 1010.9 0.0000 0.1000
15:53 8.2 6.5 89 351 0.8 1.9 1011 0.0000 0.1000
16:02 8.2 6.5 89 355 1.1 2.2 1011.1 0.0000 0.1000
16:13 8.2 6.5 89 45 0.6 1.1 1011.1 0.0000 0.1000
16:23 8.2 6.5 89 58 0.8 1.7 1011.1 0.0000 0.1000
16:33 8.2 6.5 89 90 0.6 1.1 1011.2 0.0000 0.1000
16:43 8.1 6.4 89 45 0.3 0.8 1011.2 0.0000 0.1000
16:53 8.1 6.4 89 0 0.6 1011.1 0.0000 0.1000
17:03 8.1 6.4 89 135 0.3 0.8 1011.1 0.0000 0.1000
17:13 8.1 6.4 89 156 0.3 0.8 1011.3 0.0000 0.1000
17:24 8.1 6.4 89 212 0.3 0.8 1011.4 0.0000 0.1000
17:34 8.1 6.4 89 219 0.3 0.6 1011.5 0.0000 0.1000
17:43 8 6.3 89 220 0.3 0.8 1011.5 0.0000 0.1000
17:53 8 6.3 89 225 0.3 0.6 1011.6 0.0000 0.1000

TAGESSTATISTIK

2024-03-04
TEMPERATUR
MITTEL
4.6
MAXIMUM
8.3
14:42
MINIMUM
0.8
04:37
LUFTDRUCK
MITTEL
1008.8
MAXIMUM
1011.6
17:53
MINIMUM
1005.5
00:15
TAUPUNKT
MITTEL
2.9
MAXIMUM
6.7
14:32
MINIMUM
-1.0
04:37
FEUCHTIGKEIT
MITTEL
89
MAXIMUM
90
09:19
MINIMUM
85
00:04
WINDSTÄRKE
MITTEL
0.5
MAXIMUM
1.4
15:12
WINDBÖE
MITTEL
1.1
MAXIMUM
2.5
15:12
WINDRICHTUNG
VORHERRSCHENDE
NO
33.6%
N
31.8
NO
33.6
O
0.9
SO
1.9
S
0.0
SW
3.7
W
3.7
NW
22.4
NIEDERSCHLAG
REGEN STUNDE
0.1
REGEN TAG
0.1
TEMPERATUR (°C)
MINIMUM
0.8
MAXIMUM
8.3
MITTEL
4.6
LUFTDRUCK (hpa)
MINIMUM
1005.5
MAXIMUM
1011.6
MITTEL
1008.8
MESSGERÄT